Time;durP1;ratioP1;P1;durP2;ratioP2;P2;SDS_P1;SDS_P2;PMS_P1;PMS_P2;Temp;Humidity;BMP_temperature;BMP_pressure;BME280_temperature;BME280_humidity;BME280_pressure;Samples;Min_cycle;Max_cycle;Signal;HPM_P1;HPM_P2
2022/04/03 00:00:29;;;;;;;8.77;5.75;;;2.30;99.90;;;;;;5018733;28;20108;-72
2022/04/03 00:02:54;;;;;;;7.75;5.07;;;1.70;99.90;;;;;;5037328;28;20347;-73
2022/04/03 00:05:20;;;;;;;6.40;4.47;;;1.70;99.90;;;;;;5035009;28;20059;-72
2022/04/03 00:07:46;;;;;;;8.85;5.10;;;1.70;99.90;;;;;;5033608;28;20331;-73
2022/04/03 00:10:14;;;;;;;8.00;5.38;;;1.70;99.90;;;;;;5063231;28;20095;-73
2022/04/03 00:12:41;;;;;;;7.25;5.10;;;2.30;99.90;;;;;;5022476;28;20034;-75
2022/04/03 00:15:07;;;;;;;6.18;4.25;;;3.00;99.90;;;;;;5056649;28;20075;-75
2022/04/03 00:17:33;;;;;;;7.97;5.15;;;1.80;99.90;;;;;;5040085;28;20135;-73
2022/04/03 00:19:59;;;;;;;6.40;4.57;;;1.80;99.90;;;;;;5072605;28;20260;-73
2022/04/03 00:22:25;;;;;;;6.97;4.50;;;1.90;99.90;;;;;;5040405;28;20076;-74
2022/04/03 00:24:52;;;;;;;7.88;5.32;;;2.60;99.90;;;;;;5075855;28;20025;-74
2022/04/03 00:27:18;;;;;;;6.50;4.78;;;1.80;99.90;;;;;;5074666;28;20248;-76
2022/04/03 00:29:44;;;;;;;5.38;4.25;;;1.90;99.90;;;;;;5023520;28;20037;-74
2022/04/03 00:32:10;;;;;;;5.78;4.07;;;2.30;99.90;;;;;;5022390;28;20053;-74
2022/04/03 00:34:36;;;;;;;6.35;4.88;;;1.90;99.90;;;;;;5044921;28;20416;-74
2022/04/03 00:37:01;;;;;;;5.57;3.97;;;1.90;99.90;;;;;;5008426;28;20045;-73
2022/04/03 00:39:27;;;;;;;10.30;4.10;;;2.00;99.90;;;;;;5039222;28;20214;-73
2022/04/03 00:41:54;;;;;;;5.07;3.30;;;1.90;99.90;;;;;;5037297;28;20362;-75
2022/04/03 00:44:20;;;;;;;5.10;3.38;;;2.00;99.90;;;;;;5040096;28;20259;-73
2022/04/03 00:46:47;;;;;;;5.70;3.50;;;2.00;99.90;;;;;;5024226;28;20096;-74
2022/04/03 00:49:13;;;;;;;4.75;3.50;;;1.90;99.90;;;;;;5023193;28;20322;-74
2022/04/03 00:51:39;;;;;;;5.65;3.70;;;2.50;99.90;;;;;;5007267;28;20373;-74
2022/04/03 00:54:07;;;;;;;5.13;3.72;;;3.30;99.90;;;;;;5022837;28;20045;-74
2022/04/03 00:56:34;;;;;;;5.50;3.95;;;2.00;99.90;;;;;;5045747;28;20231;-74
2022/04/03 00:59:00;;;;;;;4.53;3.70;;;1.90;99.90;;;;;;5073213;28;20025;-73
2022/04/03 01:01:26;;;;;;;5.50;3.70;;;2.00;99.90;;;;;;5021849;28;20101;-74
2022/04/03 01:03:52;;;;;;;6.47;3.25;;;1.90;99.90;;;;;;5034101;28;20033;-73
2022/04/03 01:06:17;;;;;;;6.18;3.70;;;3.20;99.90;;;;;;5025077;28;20037;-73
2022/04/03 01:08:43;;;;;;;6.40;4.38;;;1.90;99.90;;;;;;5023510;28;20057;-74
2022/04/03 01:11:12;;;;;;;5.28;4.35;;;2.00;99.90;;;;;;5034328;28;20041;-74
2022/04/03 01:13:49;;;;;;;4.30;3.33;;;2.00;99.90;;;;;;5023873;28;20041;-74
2022/04/03 01:16:15;;;;;;;8.50;3.97;;;2.10;99.90;;;;;;5038081;28;20038;-75
2022/04/03 01:18:41;;;;;;;7.43;3.83;;;2.00;99.90;;;;;;5057553;28;20389;-75
2022/04/03 01:21:07;;;;;;;5.93;4.30;;;3.40;99.90;;;;;;5054150;28;20034;-73
2022/04/03 01:23:32;;;;;;;7.07;4.10;;;2.20;99.90;;;;;;5022806;28;20040;-74
2022/04/03 01:25:58;;;;;;;6.25;3.45;;;2.90;99.90;;;;;;5038159;28;20362;-73
2022/04/03 01:28:25;;;;;;;8.38;3.90;;;2.80;99.90;;;;;;5073013;28;20030;-73
2022/04/03 01:30:51;;;;;;;8.02;4.38;;;2.00;99.90;;;;;;5054560;28;20100;-74
2022/04/03 01:33:17;;;;;;;9.10;6.00;;;3.00;99.90;;;;;;5029566;28;20049;-73
2022/04/03 01:35:43;;;;;;;7.18;4.82;;;2.20;99.90;;;;;;5023401;28;20109;-74
2022/04/03 01:38:09;;;;;;;9.63;4.65;;;2.20;99.90;;;;;;5023326;28;20053;-74
2022/04/03 01:40:35;;;;;;;8.65;5.78;;;2.30;99.90;;;;;;5037268;28;20320;-73
2022/04/03 01:43:10;;;;;;;10.57;5.38;;;2.40;99.90;;;;;;5054465;28;20100;-74
2022/04/03 01:45:37;;;;;;;10.77;5.85;;;2.30;99.90;;;;;;5023888;28;20041;-74
2022/04/03 01:48:04;;;;;;;7.50;5.20;;;2.40;99.90;;;;;;5023169;28;20063;-75
2022/04/03 01:50:30;;;;;;;6.95;5.13;;;2.40;99.90;;;;;;5006536;28;20053;-75
2022/04/03 01:52:55;;;;;;;6.13;4.90;;;3.40;99.90;;;;;;5039245;28;20068;-76
2022/04/03 01:55:23;;;;;;;6.30;4.90;;;2.40;99.90;;;;;;5073285;28;20084;-75
2022/04/03 01:57:48;;;;;;;8.50;4.57;;;2.40;99.90;;;;;;5039444;28;20390;-76
2022/04/03 02:00:16;;;;;;;7.55;4.30;;;2.50;99.90;;;;;;5022282;28;20034;-75
2022/04/03 02:02:41;;;;;;;7.75;3.90;;;2.50;99.90;;;;;;5055044;28;20040;-75
2022/04/03 02:05:08;;;;;;;5.25;4.00;;;2.50;99.90;;;;;;5039877;28;20516;-75
2022/04/03 02:07:34;;;;;;;6.22;4.00;;;2.60;99.90;;;;;;5039700;28;20152;-75
2022/04/03 02:10:01;;;;;;;6.30;3.80;;;2.60;99.90;;;;;;5004915;28;20044;-75
2022/04/03 02:12:26;;;;;;;4.38;3.33;;;3.00;99.90;;;;;;5037093;28;20064;-76
2022/04/03 02:14:52;;;;;;;5.95;3.38;;;2.70;99.90;;;;;;5071378;28;20029;-75
2022/04/03 02:17:18;;;;;;;4.72;3.83;;;2.70;99.90;;;;;;5039288;28;20266;-75
2022/04/03 02:19:44;;;;;;;5.95;3.85;;;2.90;99.90;;;;;;5023011;28;20030;-75
2022/04/03 02:22:10;;;;;;;7.68;3.70;;;3.50;99.90;;;;;;5037716;28;20056;-75
2022/04/03 02:24:36;;;;;;;5.72;3.67;;;2.90;99.90;;;;;;5023110;28;20120;-75
2022/04/03 02:27:01;;;;;;;5.95;4.18;;;3.70;99.90;;;;;;5073247;28;20200;-75
2022/04/03 02:29:27;;;;;;;5.85;3.90;;;3.20;99.90;;;;;;5022581;28;20220;-75
2022/04/03 02:31:53;;;;;;;7.47;4.00;;;3.20;99.90;;;;;;5020164;28;20064;-75
2022/04/03 02:34:19;;;;;;;7.40;4.05;;;3.10;99.90;;;;;;5039255;28;20056;-75
2022/04/03 02:36:45;;;;;;;5.13;3.78;;;3.30;99.90;;;;;;5039663;28;20095;-77
2022/04/03 02:39:12;;;;;;;4.72;3.50;;;3.30;99.90;;;;;;5039000;28;20048;-74
2022/04/03 02:41:38;;;;;;;7.88;4.05;;;3.40;99.90;;;;;;5074007;28;20037;-77
2022/04/03 02:44:04;;;;;;;6.15;3.22;;;3.40;99.90;;;;;;5028990;28;20024;-74
2022/04/03 02:46:30;;;;;;;4.95;3.50;;;3.50;99.90;;;;;;5043334;28;20046;-73
2022/04/03 02:48:57;;;;;;;4.95;3.90;;;3.40;99.90;;;;;;5025876;28;20238;-77
2022/04/03 02:51:23;;;;;;;6.22;4.03;;;4.40;99.90;;;;;;5057982;28;20031;-76
2022/04/03 02:53:48;;;;;;;3.55;2.10;;;3.40;99.90;;;;;;5041683;28;20037;-75
2022/04/03 02:56:14;;;;;;;2.90;2.10;;;3.70;99.90;;;;;;5026103;28;20041;-75
2022/04/03 02:58:40;;;;;;;3.17;1.90;;;3.90;99.90;;;;;;5043454;28;20040;-74
2022/04/03 03:01:06;;;;;;;3.20;1.70;;;5.20;99.90;;;;;;5040800;28;20045;-73
2022/04/03 03:03:32;;;;;;;2.50;1.40;;;4.00;99.90;;;;;;5058425;28;20041;-74
2022/04/03 03:05:58;;;;;;;3.47;1.25;;;4.20;99.90;;;;;;5008466;28;20025;-73
2022/04/03 03:08:23;;;;;;;2.55;1.33;;;4.30;99.90;;;;;;5039588;28;20387;-77
2022/04/03 03:10:49;;;;;;;2.15;1.10;;;4.30;99.90;;;;;;5041863;28;20041;-75
2022/04/03 03:13:15;;;;;;;1.08;0.90;;;4.60;99.90;;;;;;5042498;28;20045;-75
2022/04/03 03:15:41;;;;;;;3.33;0.77;;;4.50;99.90;;;;;;5040999;28;20041;-77
2022/04/03 03:18:07;;;;;;;0.85;0.70;;;4.80;99.90;;;;;;5041836;28;20361;-78
2022/04/03 03:20:33;;;;;;;1.65;0.80;;;5.40;99.90;;;;;;5041781;28;20083;-78
2022/04/03 03:23:00;;;;;;;1.15;0.90;;;4.90;99.90;;;;;;5039280;28;20072;-75
2022/04/03 03:25:26;;;;;;;1.55;1.13;;;5.20;99.90;;;;;;5058231;28;20037;-77
2022/04/03 03:27:52;;;;;;;2.00;0.90;;;5.20;99.90;;;;;;5042056;28;20028;-75
2022/04/03 03:30:18;;;;;;;1.92;0.85;;;5.00;99.90;;;;;;5042418;28;20312;-75
2022/04/03 03:32:44;;;;;;;2.17;0.85;;;5.30;99.90;;;;;;5072648;28;20227;-74
2022/04/03 03:35:10;;;;;;;2.40;1.05;;;5.40;99.90;;;;;;5025381;28;20037;-74
2022/04/03 03:37:37;;;;;;;2.80;1.02;;;5.50;99.90;;;;;;5041811;28;20056;-74
2022/04/03 03:40:06;;;;;;;2.47;1.08;;;5.30;99.90;;;;;;5040470;28;20283;-74
2022/04/03 03:42:33;;;;;;;1.27;1.10;;;5.60;99.90;;;;;;5039254;28;20045;-74
2022/04/03 03:44:59;;;;;;;3.03;1.17;;;5.50;99.90;;;;;;5024578;28;20034;-76
2022/04/03 03:47:26;;;;;;;1.65;1.08;;;5.60;99.90;;;;;;5041688;28;20047;-75
2022/04/03 03:49:52;;;;;;;2.05;1.10;;;5.90;99.90;;;;;;5041613;28;20052;-74
2022/04/03 03:52:21;;;;;;;2.47;1.20;;;5.70;99.90;;;;;;5023766;28;20953;-75
2022/04/03 03:54:46;;;;;;;2.70;1.40;;;6.10;99.90;;;;;;5006354;28;20048;-75
2022/04/03 03:57:13;;;;;;;4.72;1.48;;;5.80;99.90;;;;;;5039832;28;20041;-76
2022/04/03 03:59:38;;;;;;;2.63;1.20;;;6.20;99.90;;;;;;5042260;28;20108;-76
2022/04/03 04:02:04;;;;;;;2.53;1.20;;;5.90;99.90;;;;;;5023516;28;20034;-75
2022/04/03 04:04:30;;;;;;;1.90;1.35;;;6.10;99.90;;;;;;5023230;28;20030;-76
2022/04/03 04:06:56;;;;;;;2.53;2.25;;;6.10;99.90;;;;;;5072427;28;20037;-75
2022/04/03 04:09:22;;;;;;;1.73;1.50;;;6.10;99.90;;;;;;5024823;28;20362;-74
2022/04/03 04:11:48;;;;;;;2.13;1.88;;;6.10;99.90;;;;;;5024512;28;20049;-72
2022/04/03 04:14:14;;;;;;;4.47;3.10;;;6.10;99.90;;;;;;5040428;28;20073;-73
2022/04/03 04:16:40;;;;;;;4.50;3.28;;;6.00;99.90;;;;;;5024123;28;20037;-73
2022/04/03 04:19:06;;;;;;;5.05;2.47;;;6.50;99.90;;;;;;5040368;28;20104;-74
2022/04/03 04:21:32;;;;;;;3.22;1.92;;;6.30;99.90;;;;;;5025277;28;20185;-73
2022/04/03 04:23:59;;;;;;;2.33;1.85;;;6.40;99.90;;;;;;5040696;28;20254;-73
2022/04/03 04:26:25;;;;;;;3.47;1.60;;;6.60;99.90;;;;;;5022571;28;20037;-73
2022/04/03 04:28:51;;;;;;;3.70;1.50;;;6.60;99.90;;;;;;5041100;28;20038;-73
2022/04/03 04:31:18;;;;;;;5.60;2.25;;;6.50;99.90;;;;;;5073613;28;20059;-74
2022/04/03 04:33:44;;;;;;;3.05;2.20;;;6.70;99.90;;;;;;5023725;28;20067;-73
2022/04/03 04:36:10;;;;;;;2.92;2.20;;;6.50;99.90;;;;;;5040636;28;20037;-73
2022/04/03 04:38:36;;;;;;;3.33;2.30;;;6.80;99.90;;;;;;5054984;28;20087;-73
2022/04/03 04:41:03;;;;;;;3.97;2.38;;;6.60;99.90;;;;;;5072714;28;20037;-74
2022/04/03 04:43:28;;;;;;;4.95;2.72;;;7.50;99.90;;;;;;5040055;28;20065;-75
2022/04/03 04:45:54;;;;;;;3.05;2.42;;;6.70;99.90;;;;;;5007619;28;20087;-74
2022/04/03 04:48:20;;;;;;;4.22;2.17;;;6.90;99.90;;;;;;5073415;28;20067;-74
2022/04/03 04:50:45;;;;;;;2.75;2.50;;;6.70;99.90;;;;;;5039022;28;20164;-74
2022/04/03 04:53:11;;;;;;;3.28;2.60;;;6.80;99.90;;;;;;5024083;28;20101;-73
2022/04/03 04:55:40;;;;;;;5.35;2.65;;;6.80;99.90;;;;;;5027867;28;20071;-74
2022/04/03 04:58:05;;;;;;;4.63;2.20;;;6.70;99.90;;;;;;5049642;28;20336;-74
2022/04/03 05:00:32;;;;;;;5.30;2.83;;;6.80;99.90;;;;;;5039843;28;20033;-72
2022/04/03 05:02:58;;;;;;;4.43;2.92;;;6.80;99.90;;;;;;5038916;28;20056;-73
2022/04/03 05:05:24;;;;;;;4.70;3.03;;;7.60;99.90;;;;;;5023217;28;20044;-73
2022/04/03 05:07:55;;;;;;;4.60;2.80;;;7.10;99.90;;;;;;5070194;28;20042;-73
2022/04/03 05:10:23;;;;;;;6.40;3.92;;;6.80;99.90;;;;;;5022719;28;20033;-73
2022/04/03 05:12:49;;;;;;;5.90;3.88;;;7.10;99.90;;;;;;5039249;28;20056;-73
2022/04/03 05:15:15;;;;;;;3.92;3.00;;;6.90;99.90;;;;;;5021789;28;20026;-72
2022/04/03 05:17:42;;;;;;;3.88;2.97;;;6.80;99.90;;;;;;5035000;28;20385;-74
2022/04/03 05:20:09;;;;;;;3.85;2.97;;;7.10;99.90;;;;;;5021998;28;20037;-74
2022/04/03 05:22:35;;;;;;;5.43;3.22;;;6.90;99.90;;;;;;5048408;28;20037;-75
2022/04/03 05:25:03;;;;;;;5.55;4.03;;;7.00;99.90;;;;;;5017439;28;20104;-75
2022/04/03 05:27:29;;;;;;;5.25;3.40;;;7.40;99.90;;;;;;5022655;28;20052;-75
2022/04/03 05:29:56;;;;;;;6.38;3.45;;;7.20;99.90;;;;;;5021798;28;20034;-74
2022/04/03 05:32:29;;;;;;;5.13;3.40;;;7.30;99.90;;;;;;5036295;28;20172;-74
2022/04/03 05:34:56;;;;;;;7.22;3.33;;;7.50;99.90;;;;;;5034793;28;20370;-75
2022/04/03 05:37:22;;;;;;;4.10;2.90;;;7.60;99.90;;;;;;5038389;28;20080;-73
2022/04/03 05:39:51;;;;;;;4.05;2.05;;;7.50;99.90;;;;;;5039698;28;20067;-74
2022/04/03 05:42:17;;;;;;;5.15;2.20;;;7.70;99.90;;;;;;5072421;28;20233;-74
2022/04/03 05:44:43;;;;;;;2.75;1.83;;;8.10;99.90;;;;;;5021899;28;20343;-75
2022/04/03 05:47:09;;;;;;;5.78;2.28;;;8.10;99.90;;;;;;5021927;28;20048;-75
2022/04/03 05:49:34;;;;;;;3.03;1.77;;;7.90;99.90;;;;;;5070743;28;20046;-75
2022/04/03 05:52:00;;;;;;;2.90;1.60;;;8.60;99.90;;;;;;5039845;28;20229;-74
2022/04/03 05:54:26;;;;;;;2.33;1.63;;;7.90;99.90;;;;;;5038905;28;20026;-74
2022/04/03 05:56:52;;;;;;;3.08;1.60;;;8.00;99.90;;;;;;5055802;28;20097;-75
2022/04/03 05:59:20;;;;;;;4.25;1.80;;;8.10;99.90;;;;;;5036302;28;20045;-74
2022/04/03 06:01:47;;;;;;;3.22;2.60;;;8.10;99.90;;;;;;5061381;28;20029;-77
2022/04/03 06:04:13;;;;;;;5.85;2.50;;;7.90;99.90;;;;;;5055862;28;20108;-74
2022/04/03 06:06:38;;;;;;;4.97;2.30;;;8.30;99.90;;;;;;5038942;28;20026;-77
2022/04/03 06:09:04;;;;;;;3.42;2.15;;;8.20;99.90;;;;;;5022970;28;20029;-74
2022/04/03 06:11:30;;;;;;;3.03;2.70;;;8.20;99.90;;;;;;5021172;28;20041;-74
2022/04/03 06:13:56;;;;;;;6.22;3.10;;;7.80;99.90;;;;;;5055067;28;20211;-76
2022/04/03 06:16:21;;;;;;;5.47;3.42;;;8.00;99.90;;;;;;5026862;28;20037;-75
2022/04/03 06:18:47;;;;;;;5.03;3.05;;;8.00;99.90;;;;;;5042849;28;20021;-77
2022/04/03 06:21:13;;;;;;;4.97;3.58;;;7.90;99.90;;;;;;5058979;28;20029;-75
2022/04/03 06:23:38;;;;;;;6.22;3.70;;;8.10;99.90;;;;;;5043743;28;20033;-77
2022/04/03 06:26:04;;;;;;;4.75;3.40;;;8.20;99.90;;;;;;5059277;28;20033;-77
2022/04/03 06:28:30;;;;;;;3.80;2.83;;;8.10;99.90;;;;;;5024201;28;20338;-78
2022/04/03 06:30:56;;;;;;;10.98;3.40;;;8.20;99.90;;;;;;5026188;28;20033;-77
2022/04/03 06:33:23;;;;;;;9.38;3.58;;;7.90;99.90;;;;;;5042614;28;20053;-75
2022/04/03 06:35:49;;;;;;;4.53;2.95;;;8.20;99.90;;;;;;5026786;28;20048;-74
2022/04/03 06:38:15;;;;;;;4.55;3.17;;;8.20;99.90;;;;;;5047177;28;20053;-74
2022/04/03 06:40:49;;;;;;;5.43;3.25;;;8.00;99.90;;;;;;5043002;28;20225;-77
2022/04/03 06:43:26;;;;;;;5.55;3.15;;;8.20;99.90;;;;;;5059115;28;20086;-75
2022/04/03 06:45:53;;;;;;;3.50;2.90;;;8.20;99.90;;;;;;5027449;28;20258;-75
2022/04/03 06:48:20;;;;;;;4.60;3.47;;;8.10;99.90;;;;;;5049750;28;20033;-75
2022/04/03 06:50:46;;;;;;;5.68;3.45;;;8.30;99.90;;;;;;5007449;28;20041;-75
2022/04/03 06:53:11;;;;;;;7.13;3.30;;;8.40;99.90;;;;;;5041933;28;20088;-75
2022/04/03 06:55:37;;;;;;;3.30;2.40;;;8.50;99.90;;;;;;5042173;28;20095;-76
2022/04/03 06:58:03;;;;;;;5.43;2.67;;;8.60;99.90;;;;;;5010137;28;20037;-75
2022/04/03 07:00:29;;;;;;;5.95;2.50;;;8.80;99.90;;;;;;5041331;28;20335;-75
2022/04/03 07:02:55;;;;;;;4.47;2.00;;;8.80;99.90;;;;;;5052400;28;20051;-76
2022/04/03 07:05:21;;;;;;;4.47;1.70;;;9.20;99.90;;;;;;5050230;28;20264;-76
2022/04/03 07:07:50;;;;;;;1.90;1.60;;;9.20;99.90;;;;;;5075429;28;20068;-74
2022/04/03 07:10:15;;;;;;;1.90;1.40;;;9.50;99.90;;;;;;5074574;28;20025;-78
2022/04/03 07:12:41;;;;;;;2.42;1.70;;;9.50;99.90;;;;;;5038436;28;20095;-75
2022/04/03 07:15:12;;;;;;;3.60;1.52;;;9.70;99.90;;;;;;5022889;28;20327;-73
2022/04/03 07:17:44;;;;;;;2.15;1.40;;;9.60;99.90;;;;;;5058436;28;20100;-75
2022/04/03 07:20:13;;;;;;;2.40;1.25;;;9.70;99.90;;;;;;5033089;28;20035;-73
2022/04/03 07:22:43;;;;;;;1.85;1.25;;;10.00;99.90;;;;;;5042503;28;20033;-75
2022/04/03 07:25:10;;;;;;;4.70;1.48;;;9.60;99.90;;;;;;5040144;28;20057;-73
2022/04/03 07:27:37;;;;;;;2.15;1.33;;;9.60;99.90;;;;;;5043752;28;20136;-77
2022/04/03 07:30:04;;;;;;;3.78;1.23;;;9.60;99.90;;;;;;5042324;28;20324;-74
2022/04/03 07:32:30;;;;;;;1.40;1.30;;;9.60;99.90;;;;;;5075117;28;20295;-74
2022/04/03 07:34:55;;;;;;;2.75;1.20;;;9.50;99.90;;;;;;5008335;28;20030;-73
2022/04/03 07:37:22;;;;;;;1.85;1.17;;;9.00;99.90;;;;;;5025607;28;20130;-74
2022/04/03 07:39:48;;;;;;;2.30;1.20;;;8.70;99.90;;;;;;5075024;28;20029;-74
2022/04/03 07:42:13;;;;;;;3.35;1.85;;;8.50;99.90;;;;;;5007027;28;20100;-75
2022/04/03 07:44:39;;;;;;;2.33;1.20;;;8.30;99.90;;;;;;5041404;28;20036;-73
2022/04/03 07:47:05;;;;;;;3.03;1.30;;;8.40;99.90;;;;;;5041391;28;20071;-74
2022/04/03 07:49:31;;;;;;;5.25;1.45;;;8.30;99.90;;;;;;5040526;28;20251;-74
2022/04/03 07:51:57;;;;;;;2.75;1.27;;;8.50;99.90;;;;;;5040418;28;20074;-74
2022/04/03 07:54:22;;;;;;;2.72;1.38;;;8.20;99.90;;;;;;5057894;28;20025;-74
2022/04/03 07:56:48;;;;;;;1.42;0.95;;;8.30;99.90;;;;;;5041619;28;20037;-74
2022/04/03 07:59:14;;;;;;;2.40;1.25;;;8.00;99.90;;;;;;5040097;28;20028;-75
2022/04/03 08:01:40;;;;;;;3.35;1.20;;;7.80;99.90;;;;;;5040407;28;20067;-73
2022/04/03 08:04:05;;;;;;;5.00;1.45;;;7.80;99.90;;;;;;5057447;28;20037;-73
2022/04/03 08:06:31;;;;;;;1.15;0.90;;;7.80;99.90;;;;;;5024076;28;20039;-73
2022/04/03 08:08:57;;;;;;;1.77;1.08;;;7.60;99.90;;;;;;5041055;28;20433;-73
2022/04/03 08:11:22;;;;;;;2.42;0.93;;;7.70;99.90;;;;;;5039723;28;20025;-75
2022/04/03 08:13:48;;;;;;;1.83;1.00;;;7.70;99.90;;;;;;5040916;28;20099;-75
2022/04/03 08:16:15;;;;;;;2.45;1.17;;;7.50;99.90;;;;;;5020633;28;20342;-74
2022/04/03 08:18:41;;;;;;;1.48;1.00;;;7.60;99.90;;;;;;5040216;28;20029;-74
2022/04/03 08:21:07;;;;;;;2.35;0.90;;;7.50;99.90;;;;;;5040023;28;20036;-74
2022/04/03 08:23:33;;;;;;;2.55;0.90;;;7.40;99.90;;;;;;5073988;28;20386;-76
2022/04/03 08:25:59;;;;;;;3.03;0.98;;;7.40;99.90;;;;;;5007384;28;20315;-74
2022/04/03 08:28:24;;;;;;;1.77;1.05;;;7.40;99.90;;;;;;5006997;28;20033;-73
2022/04/03 08:30:50;;;;;;;2.17;1.00;;;7.50;99.90;;;;;;5053509;28;20478;-73
2022/04/03 08:33:16;;;;;;;2.15;1.20;;;7.50;99.90;;;;;;5041149;28;20048;-73
2022/04/03 08:35:42;;;;;;;1.77;1.08;;;7.50;99.90;;;;;;5057412;28;20037;-73
2022/04/03 08:38:08;;;;;;;4.05;1.20;;;7.20;99.90;;;;;;5023568;28;20140;-74
2022/04/03 08:40:35;;;;;;;4.03;1.10;;;7.10;99.90;;;;;;5023376;28;20045;-73
2022/04/03 08:43:02;;;;;;;3.35;1.02;;;7.20;99.90;;;;;;5007336;28;20037;-74
2022/04/03 08:45:28;;;;;;;3.05;0.93;;;6.90;99.90;;;;;;5038465;28;20053;-73
2022/04/03 08:47:59;;;;;;;1.27;1.17;;;7.10;99.90;;;;;;5039999;28;20030;-74
2022/04/03 08:50:28;;;;;;;3.55;1.23;;;6.50;99.90;;;;;;5040010;28;20061;-74
2022/04/03 08:52:55;;;;;;;1.05;0.90;;;6.20;99.90;;;;;;5023544;28;20040;-73
2022/04/03 08:55:21;;;;;;;2.70;1.30;;;6.40;99.90;;;;;;5070385;28;20030;-74
2022/04/03 08:57:48;;;;;;;2.33;0.93;;;6.80;99.90;;;;;;5039767;28;20048;-74
2022/04/03 09:00:15;;;;;;;4.13;1.05;;;7.00;99.90;;;;;;5040319;28;20033;-74
2022/04/03 09:02:41;;;;;;;3.90;0.98;;;7.30;99.90;;;;;;5038309;28;20193;-74
2022/04/03 09:05:09;;;;;;;4.38;1.85;;;7.50;99.90;;;;;;5022970;28;20250;-71
2022/04/03 09:07:35;;;;;;;4.43;1.08;;;7.80;99.90;;;;;;5037195;28;20045;-72
2022/04/03 09:10:16;;;;;;;1.83;0.93;;;7.80;99.90;;;;;;5023707;28;20266;-72
2022/04/03 09:12:47;;;;;;;1.80;0.90;;;8.20;99.90;;;;;;5040173;28;20397;-72
2022/04/03 09:15:17;;;;;;;1.77;0.80;;;8.00;99.90;;;;;;5039094;28;20358;-71
2022/04/03 09:17:50;;;;;;;2.25;0.80;;;7.40;99.90;;;;;;5022583;28;20028;-73
2022/04/03 09:20:18;;;;;;;3.50;0.82;;;7.20;99.90;;;;;;5032818;28;20219;-74
2022/04/03 09:22:46;;;;;;;3.25;0.80;;;7.00;99.90;;;;;;5065988;28;20037;-72
2022/04/03 09:25:15;;;;;;;1.88;0.77;;;6.60;99.90;;;;;;5024101;28;20046;-71
2022/04/03 09:27:47;;;;;;;2.67;0.82;;;6.50;99.90;;;;;;5032042;28;20045;-72
2022/04/03 09:30:13;;;;;;;4.68;0.82;;;6.40;99.90;;;;;;5031916;28;20041;-72
2022/04/03 09:32:56;;;;;;;8.40;0.95;;;6.80;99.90;;;;;;5031770;28;20076;-73
2022/04/03 09:35:27;;;;;;;4.45;1.00;;;7.40;99.90;;;;;;5030725;28;20068;-72
2022/04/03 09:38:14;;;;;;;3.13;0.93;;;7.80;99.90;;;;;;5045213;28;20033;-72
2022/04/03 09:40:42;;;;;;;0.63;0.63;;;8.20;99.90;;;;;;5015132;28;20247;-74
2022/04/03 09:43:13;;;;;;;1.67;1.00;;;8.10;99.90;;;;;;5067178;28;20045;-72
2022/04/03 09:45:56;;;;;;;1.30;0.73;;;7.90;99.90;;;;;;5016399;28;20068;-72
2022/04/03 09:48:34;;;;;;;3.00;0.73;;;8.50;99.90;;;;;;5033081;28;20263;-71
2022/04/03 09:51:06;;;;;;;2.05;0.70;;;8.20;99.90;;;;;;5033160;28;20208;-71
2022/04/03 09:53:56;;;;;;;3.97;0.80;;;7.90;99.90;;;;;;5032113;28;20043;-73
2022/04/03 09:56:22;;;;;;;3.20;1.00;;;8.20;99.90;;;;;;5019895;28;20034;-72
2022/04/03 09:58:51;;;;;;;4.25;1.05;;;8.70;99.90;;;;;;5070302;28;20208;-73
2022/04/03 10:01:55;;;;;;;2.55;0.73;;;8.90;99.90;;;;;;5037257;28;20212;-73
2022/04/03 10:04:22;;;;;;;3.00;0.60;;;9.10;99.90;;;;;;5012576;28;20084;-73
2022/04/03 10:06:51;;;;;;;1.02;0.50;;;9.10;99.90;;;;;;5046280;28;20045;-72
2022/04/03 10:09:19;;;;;;;2.05;0.60;;;8.80;99.90;;;;;;5036431;28;20037;-71
2022/04/03 10:11:46;;;;;;;2.05;0.60;;;8.70;99.90;;;;;;5034665;28;20046;-72
2022/04/03 10:14:12;;;;;;;0.60;0.60;;;8.90;99.90;;;;;;5071510;28;20037;-72
2022/04/03 10:16:38;;;;;;;0.95;0.68;;;8.60;99.90;;;;;;5035631;28;20072;-72
2022/04/03 10:19:03;;;;;;;1.20;0.80;;;8.90;99.90;;;;;;5035309;28;20271;-72
2022/04/03 10:21:42;;;;;;;0.93;0.55;;;8.40;99.90;;;;;;5035078;28;20119;-70
2022/04/03 10:24:20;;;;;;;1.92;0.65;;;8.10;99.90;;;;;;5068757;28;20041;-72
2022/04/03 10:26:57;;;;;;;2.90;0.80;;;7.70;99.90;;;;;;5037842;28;20284;-72
2022/04/03 10:29:24;;;;;;;0.90;0.52;;;7.40;99.90;;;;;;5038448;28;20049;-71
2022/04/03 10:31:58;;;;;;;1.30;0.90;;;8.10;99.90;;;;;;5035178;28;20304;-72
2022/04/03 10:34:27;;;;;;;2.08;0.90;;;8.70;99.90;;;;;;5018781;28;20053;-73
2022/04/03 10:36:53;;;;;;;1.63;0.65;;;9.00;99.90;;;;;;5035998;28;20106;-72
2022/04/03 10:39:24;;;;;;;1.15;0.55;;;8.30;99.90;;;;;;5068887;28;20033;-71
2022/04/03 10:41:50;;;;;;;3.72;1.30;;;8.10;99.90;;;;;;5036706;28;20063;-73
2022/04/03 10:44:15;;;;;;;2.35;1.00;;;8.50;99.90;;;;;;5036241;28;20386;-71
2022/04/03 10:47:01;;;;;;;2.97;1.27;;;9.00;99.90;;;;;;5034455;28;20080;-71
2022/04/03 10:49:36;;;;;;;3.65;1.60;;;9.80;99.90;;;;;;5034417;28;20041;-74
2022/04/03 10:52:07;;;;;;;1.38;0.70;;;10.10;99.90;;;;;;5035966;28;20048;-71
2022/04/03 10:54:42;;;;;;;2.60;0.90;;;9.60;99.90;;;;;;5068032;28;20327;-71
2022/04/03 10:57:33;;;;;;;3.17;0.70;;;8.60;99.90;;;;;;5058483;28;20029;-71
2022/04/03 11:00:16;;;;;;;2.33;0.60;;;7.80;99.90;;;;;;5053904;28;20060;-71
2022/04/03 11:03:14;;;;;;;1.90;0.60;;;7.70;99.90;;;;;;5034184;28;20041;-72
2022/04/03 11:05:45;;;;;;;2.47;1.02;;;7.30;99.90;;;;;;5052471;28;20140;-71
2022/04/03 11:08:11;;;;;;;2.35;0.90;;;6.90;99.90;;;;;;5035922;28;20373;-71
2022/04/03 11:10:59;;;;;;;2.05;0.90;;;6.70;99.90;;;;;;5023078;28;20112;-74
2022/04/03 11:13:31;;;;;;;1.15;0.60;;;6.70;99.90;;;;;;5036188;28;20042;-72
2022/04/03 11:16:02;;;;;;;1.80;0.60;;;6.50;99.90;;;;;;5063171;28;20354;-71
2022/04/03 11:18:41;;;;;;;1.17;0.60;;;6.60;99.90;;;;;;5037387;28;20044;-74
2022/04/03 11:21:25;;;;;;;1.15;0.60;;;6.50;99.90;;;;;;5036162;28;20104;-72
2022/04/03 11:24:00;;;;;;;1.70;0.82;;;6.60;99.90;;;;;;5044398;28;20041;-72
2022/04/03 11:26:26;;;;;;;2.47;0.70;;;6.60;99.90;;;;;;5033229;28;20114;-71
2022/04/03 11:28:52;;;;;;;1.50;0.80;;;6.80;99.90;;;;;;5040369;28;20068;-71
2022/04/03 11:31:18;;;;;;;1.40;0.82;;;7.20;99.90;;;;;;5074016;28;20080;-72
2022/04/03 11:33:46;;;;;;;1.17;0.50;;;7.50;99.90;;;;;;5020095;28;20065;-71
2022/04/03 11:36:17;;;;;;;1.65;0.60;;;7.80;99.90;;;;;;5019627;28;20116;-73
2022/04/03 11:38:47;;;;;;;2.72;0.60;;;7.60;99.90;;;;;;5067468;28;20091;-74
2022/04/03 11:41:20;;;;;;;3.13;0.82;;;7.60;99.90;;;;;;5019375;28;20048;-73
2022/04/03 11:44:00;;;;;;;2.85;0.63;;;7.50;99.90;;;;;;5035924;28;20041;-72
2022/04/03 11:46:28;;;;;;;1.17;0.77;;;7.40;99.90;;;;;;5066325;28;20041;-74
2022/04/03 11:48:54;;;;;;;1.02;0.50;;;7.40;99.90;;;;;;5034385;28;20045;-74
2022/04/03 11:51:21;;;;;;;1.10;0.50;;;7.50;99.90;;;;;;5034774;28;20092;-72
2022/04/03 11:53:59;;;;;;;1.13;0.70;;;7.90;99.90;;;;;;5051864;28;20123;-72
2022/04/03 11:56:26;;;;;;;2.85;0.68;;;8.50;99.90;;;;;;5035204;28;20271;-74
2022/04/03 11:58:57;;;;;;;1.48;0.73;;;8.50;99.90;;;;;;5002115;28;20129;-76
2022/04/03 12:01:31;;;;;;;0.93;0.60;;;8.70;99.90;;;;;;5036344;28;20037;-74
2022/04/03 12:04:06;;;;;;;0.95;0.60;;;8.70;99.90;;;;;;5015647;28;20048;-74
2022/04/03 12:06:32;;;;;;;;;;;8.80;99.90;;;;;;5039947;28;20049;-74
2022/04/03 12:08:58;;;;;;;0.68;0.63;;;8.60;99.90;;;;;;5038118;28;19962;-73
2022/04/03 12:11:26;;;;;;;1.10;0.80;;;8.50;99.90;;;;;;5032238;28;20108;-72
2022/04/03 12:13:59;;;;;;;3.00;0.70;;;9.10;99.90;;;;;;5036173;28;20393;-75
2022/04/03 12:16:32;;;;;;;3.63;1.42;;;9.10;99.90;;;;;;5035046;28;20033;-72
2022/04/03 12:19:04;;;;;;;1.23;0.88;;;8.90;99.90;;;;;;5050003;28;20033;-72
2022/04/03 12:21:49;;;;;;;2.15;0.90;;;9.00;99.90;;;;;;5019186;28;20039;-74
2022/04/03 12:24:27;;;;;;;1.58;0.80;;;9.70;99.90;;;;;;5065395;28;20041;-72
2022/04/03 12:27:37;;;;;;;2.03;0.85;;;9.80;99.90;;;;;;5032621;28;20037;-75
2022/04/03 12:30:11;;;;;;;1.85;0.90;;;10.10;99.90;;;;;;5053726;28;20071;-72
2022/04/03 12:32:42;;;;;;;2.95;1.00;;;9.30;99.90;;;;;;5032595;28;20320;-76
2022/04/03 12:35:10;;;;;;;1.38;0.65;;;8.90;99.90;;;;;;5041922;28;20041;-71
2022/04/03 12:37:38;;;;;;;2.58;0.90;;;9.00;99.90;;;;;;5052474;28;20040;-72
2022/04/03 12:40:15;;;;;;;2.33;0.85;;;8.60;99.90;;;;;;5062070;28;20037;-73
2022/04/03 12:42:42;;;;;;;3.70;0.90;;;8.60;99.90;;;;;;5048554;28;20048;-72
2022/04/03 12:45:20;;;;;;;1.05;0.65;;;8.40;99.90;;;;;;5067782;28;20049;-73
2022/04/03 12:48:03;;;;;;;2.75;0.90;;;8.20;99.90;;;;;;5025020;28;20198;-73
2022/04/03 12:50:41;;;;;;;2.65;1.10;;;7.90;99.90;;;;;;5040913;28;20041;-72
2022/04/03 12:53:21;;;;;;;1.40;0.75;;;7.90;99.90;;;;;;5078349;28;20063;-73
2022/04/03 12:55:54;;;;;;;2.08;0.80;;;7.80;99.90;;;;;;5002918;28;20040;-74
2022/04/03 12:58:24;;;;;;;1.85;1.00;;;7.70;99.90;;;;;;5025521;28;20205;-74
2022/04/03 13:01:23;;;;;;;1.63;0.80;;;8.00;99.90;;;;;;5038607;28;20287;-74
2022/04/03 13:03:52;;;;;;;1.60;0.98;;;8.20;99.90;;;;;;5041735;28;20205;-73